createdAt,value
2022-08-19T00:01:56.962Z,100701.78
2022-08-19T00:04:30.496Z,100715.22
2022-08-19T00:06:58.898Z,100715.41
2022-08-19T00:09:26.426Z,100699.16
2022-08-19T00:11:56.378Z,100689.41
2022-08-19T00:14:25.305Z,100683.09
2022-08-19T00:16:55.396Z,100681.34
2022-08-19T00:19:24.451Z,100683.38
2022-08-19T00:21:52.229Z,100681.69
2022-08-19T00:24:19.833Z,100678.22
2022-08-19T00:26:46.967Z,100674.72
2022-08-19T00:29:17.874Z,100676.66
2022-08-19T00:31:45.267Z,100680.50
2022-08-19T00:34:14.321Z,100685.13
2022-08-19T00:36:42.433Z,100689.91
2022-08-19T00:39:10.638Z,100686.56
2022-08-19T00:41:38.051Z,100692.06
2022-08-19T00:44:12.002Z,100688.50
2022-08-19T00:46:44.032Z,100680.44
2022-08-19T00:49:41.724Z,100665.28
2022-08-19T00:52:15.454Z,100654.53
2022-08-19T00:54:44.414Z,100659.13
2022-08-19T00:57:15.719Z,100655.66
2022-08-19T01:00:00.943Z,100662.09
2022-08-19T01:02:32.011Z,100657.75
2022-08-19T01:05:01.283Z,100645.38
2022-08-19T01:07:28.173Z,100657.22
2022-08-19T01:10:04.673Z,100657.31
2022-08-19T01:12:31.937Z,100661.06
2022-08-19T01:14:59.922Z,100646.91
2022-08-19T01:17:26.864Z,100663.13
2022-08-19T01:19:53.654Z,100650.75
2022-08-19T01:22:33.730Z,100663.38
2022-08-19T01:25:01.694Z,100662.63
2022-08-19T01:27:43.795Z,100671.69
2022-08-19T01:30:19.762Z,100666.47
2022-08-19T01:32:46.639Z,100655.81
2022-08-19T01:35:15.689Z,100664.00
2022-08-19T01:37:56.660Z,100647.97
2022-08-19T01:40:30.042Z,100661.56
2022-08-19T01:42:56.930Z,100666.09
2022-08-19T01:45:27.654Z,100659.88
2022-08-19T01:48:02.122Z,100659.03
2022-08-19T01:50:32.505Z,100667.03
2022-08-19T01:53:05.929Z,100656.41
2022-08-19T01:55:35.394Z,100656.06
2022-08-19T01:58:14.401Z,100655.09
2022-08-19T02:00:41.673Z,100646.22
2022-08-19T02:03:12.084Z,100644.41
2022-08-19T02:05:40.109Z,100640.81
2022-08-19T02:08:07.865Z,100643.53
2022-08-19T02:10:34.998Z,100640.00
2022-08-19T02:13:01.795Z,100645.59
2022-08-19T02:15:28.613Z,100649.44
2022-08-19T02:17:55.400Z,100646.09
2022-08-19T02:20:23.401Z,100639.13
2022-08-19T02:22:50.317Z,100649.22
2022-08-19T02:25:17.255Z,100645.63
2022-08-19T02:27:44.421Z,100645.63
2022-08-19T02:30:17.732Z,100641.00
2022-08-19T02:32:45.199Z,100639.44
2022-08-19T02:35:14.582Z,100632.28
2022-08-19T02:38:01.336Z,100632.28
2022-08-19T02:40:30.744Z,100634.19
2022-08-19T02:42:57.567Z,100639.59
2022-08-19T02:45:24.449Z,100638.03
2022-08-19T02:47:51.325Z,100640.88
2022-08-19T02:50:18.597Z,100635.63
2022-08-19T02:52:46.355Z,100633.97
2022-08-19T02:55:13.154Z,100629.59
2022-08-19T02:57:39.966Z,100636.94
2022-08-19T03:00:09.843Z,100645.97
2022-08-19T03:02:36.705Z,100645.03
2022-08-19T03:05:05.552Z,100651.22
2022-08-19T03:07:32.349Z,100646.69
2022-08-19T03:09:59.525Z,100645.63
2022-08-19T03:12:26.390Z,100648.44
2022-08-19T03:14:53.698Z,100645.63
2022-08-19T03:17:20.907Z,100652.00
2022-08-19T03:19:47.741Z,100649.31
2022-08-19T03:22:15.011Z,100655.66
2022-08-19T03:24:41.839Z,100656.59
2022-08-19T03:27:08.690Z,100660.25
2022-08-19T03:29:43.139Z,100656.78
2022-08-19T03:32:24.439Z,100666.88
2022-08-19T03:34:58.540Z,100660.72
2022-08-19T03:37:25.335Z,100646.47
2022-08-19T03:39:52.845Z,100645.66
2022-08-19T03:42:32.483Z,100649.41
2022-08-19T03:45:00.239Z,100654.09
2022-08-19T03:47:27.039Z,100662.25
2022-08-19T03:49:53.858Z,100653.31
2022-08-19T03:52:20.654Z,100656.25
2022-08-19T03:54:47.442Z,100663.56
2022-08-19T03:57:14.269Z,100656.59
2022-08-19T03:59:41.197Z,100651.34
2022-08-19T04:02:12.366Z,100658.63
2022-08-19T04:04:42.043Z,100658.81
2022-08-19T04:07:10.341Z,100666.09
2022-08-19T04:09:37.805Z,100650.06
2022-08-19T04:12:06.642Z,100659.16
2022-08-19T04:14:34.820Z,100666.56
2022-08-19T04:17:05.655Z,100663.91
2022-08-19T04:19:35.156Z,100655.91
2022-08-19T04:22:02.353Z,100658.63
2022-08-19T04:24:29.224Z,100660.50
2022-08-19T04:26:56.761Z,100668.59
2022-08-19T04:29:26.335Z,100667.66
2022-08-19T04:31:55.638Z,100665.84
2022-08-19T04:34:26.151Z,100667.66
2022-08-19T04:36:55.525Z,100665.84
2022-08-19T04:39:48.493Z,100671.25
2022-08-19T04:42:35.988Z,100674.00
2022-08-19T04:45:05.411Z,100674.97
2022-08-19T04:47:47.469Z,100681.31
2022-08-19T04:50:23.490Z,100681.38
2022-08-19T04:52:52.695Z,100678.69
2022-08-19T04:55:19.693Z,100688.59
2022-08-19T04:57:46.535Z,100685.84
2022-08-19T05:00:13.872Z,100680.44
2022-08-19T05:02:40.775Z,100675.91
2022-08-19T05:05:08.310Z,100674.09
2022-08-19T05:07:35.493Z,100668.59
2022-08-19T05:10:04.251Z,100672.09
2022-08-19T05:12:31.080Z,100668.47
2022-08-19T05:14:59.066Z,100676.41
2022-08-19T05:17:28.964Z,100680.84
2022-08-19T05:20:16.799Z,100682.69
2022-08-19T05:22:47.033Z,100678.06
2022-08-19T05:25:21.631Z,100675.47
2022-08-19T05:27:49.134Z,100681.63
2022-08-19T05:30:17.198Z,100679.09
2022-08-19T05:32:44.474Z,100675.28
2022-08-19T05:35:12.573Z,100677.06
2022-08-19T05:37:41.081Z,100666.25
2022-08-19T05:40:09.542Z,100674.25
2022-08-19T05:42:36.369Z,100671.66
2022-08-19T05:45:03.997Z,100678.81
2022-08-19T05:47:30.816Z,100682.22
2022-08-19T05:49:57.650Z,100675.88
2022-08-19T05:52:25.454Z,100678.56
2022-08-19T05:54:55.645Z,100679.41
2022-08-19T05:57:23.659Z,100682.28
2022-08-19T05:59:57.631Z,100676.88
2022-08-19T06:02:27.261Z,100682.00
2022-08-19T06:04:54.160Z,100684.47
2022-08-19T06:07:20.977Z,100687.06
2022-08-19T06:09:59.728Z,100685.09
2022-08-19T06:12:32.440Z,100690.28
2022-08-19T06:15:01.103Z,100688.38
2022-08-19T06:17:31.285Z,100689.25
2022-08-19T06:19:59.454Z,100701.88
2022-08-19T06:22:26.867Z,100701.13
2022-08-19T06:24:54.798Z,100701.06
2022-08-19T06:27:22.720Z,100706.34
2022-08-19T06:29:50.092Z,100708.09
2022-08-19T06:32:19.508Z,100717.78
2022-08-19T06:34:46.817Z,100709.50
2022-08-19T06:37:14.622Z,100713.81
2022-08-19T06:39:45.650Z,100714.44
2022-08-19T06:42:14.121Z,100725.09
2022-08-19T06:44:43.803Z,100724.94
2022-08-19T06:47:23.464Z,100725.72
2022-08-19T06:49:54.894Z,100728.41
2022-08-19T06:52:27.755Z,100729.22
2022-08-19T06:54:57.062Z,100727.31
2022-08-19T06:57:28.090Z,100724.47
2022-08-19T06:59:56.450Z,100720.66
2022-08-19T07:02:27.109Z,100718.72
2022-08-19T07:04:54.459Z,100724.13
2022-08-19T07:07:23.133Z,100733.13
2022-08-19T07:09:58.545Z,100745.44
2022-08-19T07:12:30.551Z,100748.91
2022-08-19T07:14:59.011Z,100745.97
2022-08-19T07:17:27.878Z,100746.78
2022-08-19T07:19:54.925Z,100750.38
2022-08-19T07:22:23.815Z,100753.84
2022-08-19T07:24:54.057Z,100755.59
2022-08-19T07:27:25.184Z,100760.13
2022-08-19T07:29:57.282Z,100764.41
2022-08-19T07:32:28.343Z,100766.97
2022-08-19T07:34:56.635Z,100763.31
2022-08-19T07:37:27.361Z,100773.16
2022-08-19T07:39:56.403Z,100775.84
2022-08-19T07:42:23.462Z,100778.50
2022-08-19T07:44:50.993Z,100782.00
2022-08-19T07:47:48.353Z,100786.59
2022-08-19T07:50:12.046Z,100785.91
2022-08-19T07:52:45.145Z,100793.13
2022-08-19T07:55:41.105Z,100796.78
2022-08-19T07:58:05.665Z,100803.63
2022-08-19T08:00:32.484Z,100800.63
2022-08-19T08:02:59.282Z,100793.72
2022-08-19T08:05:44.900Z,100794.94
2022-08-19T08:08:44.515Z,100804.06
2022-08-19T08:11:17.668Z,100809.75
2022-08-19T08:13:47.092Z,100800.19
2022-08-19T08:16:32.072Z,100806.81
2022-08-19T08:18:59.281Z,100811.78
2022-08-19T08:21:26.216Z,100809.84
2022-08-19T08:23:56.431Z,100804.44
2022-08-19T08:26:23.816Z,100801.75
2022-08-19T08:28:50.839Z,100803.59
2022-08-19T08:31:19.515Z,100807.50
2022-08-19T08:33:48.880Z,100794.31
2022-08-19T08:36:16.353Z,100801.47
2022-08-19T08:38:47.630Z,100801.28
2022-08-19T08:41:53.604Z,100808.13
2022-08-19T08:47:26.399Z,100796.94
2022-08-19T08:50:00.682Z,100805.06
2022-08-19T08:52:36.361Z,100804.13
2022-08-19T08:55:12.527Z,100806.06
2022-08-19T08:57:48.542Z,100804.28
2022-08-19T09:00:27.472Z,100804.44
2022-08-19T09:02:59.350Z,100796.31
2022-08-19T09:06:04.287Z,100796.69
2022-08-19T09:08:44.311Z,100805.78
2022-08-19T09:11:47.189Z,100807.97
2022-08-19T09:14:51.963Z,100811.28
2022-08-19T09:17:28.364Z,100806.50
2022-08-19T09:20:11.230Z,100800.66
2022-08-19T09:22:40.491Z,100805.81
2022-08-19T09:25:10.049Z,100802.75
2022-08-19T09:27:43.691Z,100798.78
2022-08-19T09:30:26.369Z,100804.94
2022-08-19T09:32:54.083Z,100804.31
2022-08-19T09:35:24.387Z,100813.59
2022-08-19T09:37:57.600Z,100808.31
2022-08-19T09:40:33.474Z,100803.72
2022-08-19T09:43:09.860Z,100804.66
2022-08-19T09:45:37.082Z,100800.13
2022-08-19T09:48:04.314Z,100798.22
2022-08-19T09:50:35.041Z,100807.91
2022-08-19T09:53:01.853Z,100804.13
2022-08-19T09:55:31.001Z,100813.22
2022-08-19T09:58:01.203Z,100818.81
2022-08-19T10:00:28.136Z,100818.81
2022-08-19T10:02:54.913Z,100805.88
2022-08-19T10:05:42.607Z,100810.75
2022-08-19T10:08:13.534Z,100816.59
2022-08-19T10:10:46.679Z,100816.25
2022-08-19T10:13:16.693Z,100806.69
2022-08-19T10:15:45.021Z,100799.91
2022-08-19T10:18:14.882Z,100801.16
2022-08-19T10:20:42.759Z,100808.81
2022-08-19T10:23:10.451Z,100804.78
2022-08-19T10:25:38.396Z,100804.66
2022-08-19T10:28:10.614Z,100797.31
2022-08-19T10:30:38.338Z,100798.94
2022-08-19T10:33:08.674Z,100796.75
2022-08-19T10:35:56.356Z,100798.38
2022-08-19T10:38:31.528Z,100795.47
2022-08-19T10:41:07.499Z,100790.53
2022-08-19T10:43:37.715Z,100773.88
2022-08-19T10:46:06.614Z,100769.13
2022-08-19T10:48:42.598Z,100769.47
2022-08-19T10:51:29.053Z,100764.50
2022-08-19T10:53:56.644Z,100768.00
2022-08-19T10:56:42.418Z,100766.03
2022-08-19T10:59:09.804Z,100766.91
2022-08-19T11:01:36.903Z,100756.94
2022-08-19T11:04:05.356Z,100749.75
2022-08-19T11:06:35.403Z,100746.84
2022-08-19T11:09:02.250Z,100754.78
2022-08-19T11:11:29.473Z,100751.78
2022-08-19T11:13:56.764Z,100747.38
2022-08-19T11:16:27.461Z,100745.81
2022-08-19T11:18:59.295Z,100740.72
2022-08-19T11:21:34.066Z,100733.16
2022-08-19T11:24:05.039Z,100730.13
2022-08-19T11:26:32.491Z,100728.09
2022-08-19T11:29:00.770Z,100719.09
2022-08-19T11:31:32.224Z,100728.09
2022-08-19T11:34:02.443Z,100719.00
2022-08-19T11:36:29.900Z,100718.78
2022-08-19T11:38:56.768Z,100717.06
2022-08-19T11:41:25.498Z,100724.22
2022-08-19T11:43:56.008Z,100728.59
2022-08-19T11:46:26.373Z,100731.00
2022-08-19T11:48:53.471Z,100723.59
2022-08-19T11:51:25.580Z,100724.47
2022-08-19T11:53:53.993Z,100718.94
2022-08-19T11:56:22.275Z,100723.09
2022-08-19T11:58:49.430Z,100716.47
2022-08-19T12:01:20.222Z,100717.69
2022-08-19T12:03:49.739Z,100715.28
2022-08-19T12:06:24.893Z,100701.06
2022-08-19T12:08:51.690Z,100702.41
2022-08-19T12:11:19.464Z,100697.19
2022-08-19T12:13:47.099Z,100694.16
2022-08-19T12:16:20.791Z,100693.81
2022-08-19T12:18:48.278Z,100693.50
2022-08-19T12:21:17.289Z,100696.75
2022-08-19T12:23:46.274Z,100711.66
2022-08-19T12:26:13.745Z,100712.09
2022-08-19T12:28:40.739Z,100708.06
2022-08-19T12:31:07.713Z,100706.22
2022-08-19T12:33:34.946Z,100700.66
2022-08-19T12:36:05.453Z,100702.16
2022-08-19T12:38:33.324Z,100694.56
2022-08-19T12:41:00.623Z,100690.44
2022-08-19T12:43:28.354Z,100694.44
2022-08-19T12:45:55.146Z,100697.94
2022-08-19T12:48:32.941Z,100697.72
2022-08-19T12:51:06.237Z,100691.06
2022-08-19T12:53:33.035Z,100704.97
2022-08-19T12:56:01.507Z,100699.81
2022-08-19T12:58:29.856Z,100701.84
2022-08-19T13:00:56.743Z,100700.53
2022-08-19T13:03:29.814Z,100696.72
2022-08-19T13:05:57.682Z,100693.78
2022-08-19T13:08:24.768Z,100699.25
2022-08-19T13:10:51.750Z,100687.53
2022-08-19T13:13:18.594Z,100677.00
2022-08-19T13:15:46.211Z,100676.38
2022-08-19T13:18:15.349Z,100677.22
2022-08-19T13:20:42.631Z,100688.75
2022-08-19T13:23:19.478Z,100678.63
2022-08-19T13:25:46.254Z,100688.75
2022-08-19T13:28:14.970Z,100675.63
2022-08-19T13:31:26.415Z,100671.41
2022-08-19T13:33:53.224Z,100687.06
2022-08-19T13:36:20.015Z,100684.47
2022-08-19T13:38:46.833Z,100690.03
2022-08-19T13:41:15.001Z,100688.19
2022-08-19T13:43:42.292Z,100683.47
2022-08-19T13:46:14.901Z,100683.03
2022-08-19T13:48:42.913Z,100679.84
2022-08-19T13:51:11.286Z,100678.44
2022-08-19T13:53:40.285Z,100677.97
2022-08-19T13:56:09.083Z,100676.50
2022-08-19T13:58:36.099Z,100683.75
2022-08-19T14:01:03.054Z,100678.59
2022-08-19T14:03:29.990Z,100673.53
2022-08-19T14:05:57.323Z,100676.66
2022-08-19T14:08:25.201Z,100677.91
2022-08-19T14:10:52.075Z,100674.75
2022-08-19T14:13:22.711Z,100677.63
2022-08-19T14:15:50.986Z,100673.31
2022-08-19T14:18:19.377Z,100671.09
2022-08-19T14:20:46.799Z,100671.09
2022-08-19T14:23:14.620Z,100680.78
2022-08-19T14:25:41.496Z,100678.41
2022-08-19T14:28:08.653Z,100672.59
2022-08-19T14:30:38.639Z,100671.13
2022-08-19T14:33:06.636Z,100673.34
2022-08-19T14:35:35.618Z,100669.41
2022-08-19T14:38:07.172Z,100673.63
2022-08-19T14:40:34.170Z,100673.41
2022-08-19T14:43:05.336Z,100658.50
2022-08-19T14:45:40.673Z,100655.63
2022-08-19T14:48:19.045Z,100657.53
2022-08-19T14:50:46.596Z,100658.75
2022-08-19T14:53:13.514Z,100666.47
2022-08-19T14:55:45.590Z,100683.94
2022-08-19T14:58:29.754Z,100671.50
2022-08-19T15:01:00.988Z,100669.75
2022-08-19T15:03:29.020Z,100677.84
2022-08-19T15:05:57.410Z,100671.41
2022-08-19T15:08:25.833Z,100676.88
2022-08-19T15:10:53.600Z,100676.94
2022-08-19T15:13:20.409Z,100691.56
2022-08-19T15:15:48.325Z,100684.78
2022-08-19T15:18:15.622Z,100685.97
2022-08-19T15:20:44.351Z,100692.94
2022-08-19T15:23:18.217Z,100686.97
2022-08-19T15:25:45.137Z,100685.34
2022-08-19T15:28:12.774Z,100687.47
2022-08-19T15:30:41.602Z,100683.97
2022-08-19T15:33:08.821Z,100690.19
2022-08-19T15:35:35.702Z,100683.72
2022-08-19T15:38:02.543Z,100682.00
2022-08-19T15:40:29.353Z,100678.28
2022-08-19T15:42:57.265Z,100676.41
2022-08-19T15:45:32.634Z,100681.00
2022-08-19T15:48:04.531Z,100668.22
2022-08-19T15:50:32.301Z,100678.06
2022-08-19T15:53:07.332Z,100673.69
2022-08-19T15:55:38.054Z,100677.53
2022-08-19T15:58:31.867Z,100683.00
2022-08-19T16:01:21.827Z,100676.78
2022-08-19T16:04:14.805Z,100688.44
2022-08-19T16:06:53.237Z,100682.22
2022-08-19T16:09:27.496Z,100682.22
2022-08-19T16:12:01.189Z,100682.22
2022-08-19T16:14:30.539Z,100678.53
2022-08-19T16:16:57.467Z,100686.44
2022-08-19T16:19:25.204Z,100686.34
2022-08-19T16:21:55.908Z,100683.50
2022-08-19T16:24:26.462Z,100679.91
2022-08-19T16:26:54.527Z,100678.06
2022-08-19T16:29:34.490Z,100676.31
2022-08-19T16:32:10.379Z,100669.88
2022-08-19T16:34:40.017Z,100673.47
2022-08-19T16:37:07.163Z,100668.84
2022-08-19T16:39:34.072Z,100667.88
2022-08-19T16:42:01.072Z,100664.16
2022-08-19T16:44:29.914Z,100656.84
2022-08-19T16:47:00.378Z,100661.19
2022-08-19T16:49:54.473Z,100658.44
2022-08-19T16:52:17.799Z,100659.22
2022-08-19T16:54:44.952Z,100665.28
2022-08-19T16:57:12.889Z,100663.41
2022-08-19T16:59:42.505Z,100664.41
2022-08-19T17:02:15.716Z,100665.38
2022-08-19T17:04:42.497Z,100672.59
2022-08-19T17:07:10.610Z,100666.16
2022-08-19T17:09:37.989Z,100670.63
2022-08-19T17:12:05.208Z,100667.91
2022-08-19T17:14:32.003Z,100672.59
2022-08-19T17:16:58.784Z,100677.19
2022-08-19T17:19:25.682Z,100671.00
2022-08-19T17:21:52.826Z,100667.50
2022-08-19T17:24:19.963Z,100664.25
2022-08-19T17:26:46.744Z,100655.56
2022-08-19T17:29:14.119Z,100660.56
2022-08-19T17:31:40.938Z,100654.44
2022-08-19T17:34:09.238Z,100652.22
2022-08-19T17:36:36.283Z,100655.31
2022-08-19T17:39:05.207Z,100648.38
2022-08-19T17:41:34.092Z,100653.16
2022-08-19T17:44:02.391Z,100647.19
2022-08-19T17:46:30.289Z,100658.47
2022-08-19T17:48:58.273Z,100648.88
2022-08-19T17:51:31.389Z,100656.56
2022-08-19T17:53:59.201Z,100660.59
2022-08-19T17:56:28.640Z,100665.53
2022-08-19T17:58:59.872Z,100660.34
2022-08-19T18:01:41.610Z,100662.44
2022-08-19T18:04:18.760Z,100661.91
2022-08-19T18:06:52.623Z,100661.28
2022-08-19T18:09:23.792Z,100666.09
2022-08-19T18:11:53.382Z,100672.63
2022-08-19T18:14:28.099Z,100668.47
2022-08-19T18:17:02.771Z,100665.22
2022-08-19T18:19:30.215Z,100670.03
2022-08-19T18:22:22.342Z,100669.50
2022-08-19T18:24:49.201Z,100663.56
2022-08-19T18:27:16.046Z,100663.78
2022-08-19T18:29:43.357Z,100672.28
2022-08-19T18:32:13.431Z,100680.81
2022-08-19T18:34:42.248Z,100680.41
2022-08-19T18:37:09.759Z,100681.81
2022-08-19T18:39:55.645Z,100676.84
2022-08-19T18:42:41.439Z,100690.88
2022-08-19T18:45:28.149Z,100689.66
2022-08-19T18:48:26.933Z,100688.47
2022-08-19T18:50:59.533Z,100684.56
2022-08-19T18:53:30.491Z,100687.84
2022-08-19T18:55:58.563Z,100693.72
2022-08-19T18:58:32.057Z,100691.44
2022-08-19T19:01:13.611Z,100694.59
2022-08-19T19:03:45.268Z,100704.16
2022-08-19T19:06:15.382Z,100706.50
2022-08-19T19:08:42.191Z,100708.66
2022-08-19T19:11:09.265Z,100705.38
2022-08-19T19:13:39.757Z,100707.56
2022-08-19T19:16:11.391Z,100707.03
2022-08-19T19:18:38.365Z,100717.44
2022-08-19T19:21:06.213Z,100719.50
2022-08-19T19:23:33.475Z,100725.25
2022-08-19T19:26:00.794Z,100728.28
2022-08-19T19:28:28.059Z,100725.00
2022-08-19T19:31:00.047Z,100738.78
2022-08-19T19:33:28.091Z,100740.94
2022-08-19T19:35:54.889Z,100739.38
2022-08-19T19:38:21.759Z,100743.28
2022-08-19T19:40:48.894Z,100748.88
2022-08-19T19:43:17.099Z,100757.34
2022-08-19T19:45:44.609Z,100759.38
2022-08-19T19:48:13.423Z,100766.88
2022-08-19T19:50:40.399Z,100763.50
2022-08-19T19:53:07.243Z,100768.13
2022-08-19T19:55:34.073Z,100768.44
2022-08-19T19:58:00.890Z,100777.66
2022-08-19T20:00:28.818Z,100776.13
2022-08-19T20:02:55.911Z,100776.31
2022-08-19T20:05:23.914Z,100772.84
2022-08-19T20:08:11.405Z,100777.59
2022-08-19T20:10:39.753Z,100775.94
2022-08-19T20:13:07.068Z,100791.47
2022-08-19T20:15:35.434Z,100787.06
2022-08-19T20:18:04.752Z,100789.88
2022-08-19T20:20:32.127Z,100790.09
2022-08-19T20:22:58.909Z,100788.34
2022-08-19T20:25:25.764Z,100784.03
2022-08-19T20:27:52.673Z,100785.00
2022-08-19T20:30:23.149Z,100777.19
2022-08-19T20:32:50.824Z,100778.22
2022-08-19T20:35:20.992Z,100780.19
2022-08-19T20:37:48.351Z,100783.94
2022-08-19T20:40:16.473Z,100786.75
2022-08-19T20:42:50.463Z,100798.59
2022-08-19T20:45:33.060Z,100802.34
2022-08-19T20:48:03.414Z,100799.84
2022-08-19T20:50:33.034Z,100798.09
2022-08-19T20:53:00.717Z,100798.19
2022-08-19T20:55:28.798Z,100799.16
2022-08-19T20:57:56.489Z,100802.06
2022-08-19T21:00:23.479Z,100808.47
2022-08-19T21:02:50.297Z,100803.03
2022-08-19T21:05:17.165Z,100794.13
2022-08-19T21:07:44.285Z,100792.47
2022-08-19T21:10:11.180Z,100794.31
2022-08-19T21:12:39.036Z,100791.78
2022-08-19T21:15:07.121Z,100791.88
2022-08-19T21:17:33.907Z,100795.56
2022-08-19T21:20:00.689Z,100799.34
2022-08-19T21:22:27.507Z,100791.28
2022-08-19T21:24:54.309Z,100794.97
2022-08-19T21:27:21.086Z,100798.75
2022-08-19T21:29:49.021Z,100792.44
2022-08-19T21:32:16.270Z,100795.25
2022-08-19T21:34:46.348Z,100798.91
2022-08-19T21:37:25.248Z,100800.00
2022-08-19T21:39:56.022Z,100800.06
2022-08-19T21:42:23.352Z,100794.84
2022-08-19T21:44:50.143Z,100798.50
2022-08-19T21:47:17.358Z,100804.91
2022-08-19T21:49:44.186Z,100806.84
2022-08-19T21:52:11.099Z,100812.44
2022-08-19T21:54:38.658Z,100808.94
2022-08-19T21:57:10.706Z,100814.53
2022-08-19T21:59:44.065Z,100812.88
2022-08-19T22:02:21.302Z,100818.41
2022-08-19T22:04:50.750Z,100819.44
2022-08-19T22:07:18.253Z,100818.56
2022-08-19T22:09:47.582Z,100813.34
2022-08-19T22:12:31.429Z,100813.34
2022-08-19T22:14:59.941Z,100806.34
2022-08-19T22:17:30.205Z,100810.03
2022-08-19T22:19:58.398Z,100805.75
2022-08-19T22:22:29.736Z,100808.47
2022-08-19T22:25:09.191Z,100813.09
2022-08-19T22:27:36.536Z,100804.28
2022-08-19T22:30:08.265Z,100797.22
2022-08-19T22:32:37.274Z,100800.00
2022-08-19T22:35:08.204Z,100800.19
2022-08-19T22:41:41.379Z,100804.47
2022-08-19T22:44:11.205Z,100791.91
2022-08-19T22:46:38.314Z,100799.25
2022-08-19T22:49:05.140Z,100801.19
2022-08-19T22:51:50.287Z,100802.16
2022-08-19T22:54:17.612Z,100806.88
2022-08-19T22:56:44.926Z,100802.41
2022-08-19T22:59:12.161Z,100801.59
2022-08-19T23:01:41.626Z,100804.47
2022-08-19T23:04:08.434Z,100800.09
2022-08-19T23:06:38.213Z,100791.19
2022-08-19T23:09:10.265Z,100797.56
2022-08-19T23:11:42.051Z,100789.63
2022-08-19T23:14:11.244Z,100787.88
2022-08-19T23:16:38.559Z,100797.94
2022-08-19T23:19:07.140Z,100789.00
2022-08-19T23:21:36.146Z,100789.97
2022-08-19T23:24:03.315Z,100785.50
2022-08-19T23:26:35.161Z,100787.38
2022-08-19T23:29:21.486Z,100789.28
2022-08-19T23:31:49.541Z,100784.94
2022-08-19T23:34:16.538Z,100790.34
2022-08-19T23:36:43.395Z,100788.59
2022-08-19T23:39:10.225Z,100794.06
2022-08-19T23:41:37.022Z,100788.75
2022-08-19T23:44:04.113Z,100786.13
2022-08-19T23:46:31.252Z,100792.59
2022-08-19T23:49:08.994Z,100792.84
2022-08-19T23:51:35.819Z,100792.94
2022-08-19T23:54:02.629Z,100789.44
2022-08-19T23:56:29.426Z,100789.44
2022-08-19T23:58:56.224Z,100782.38
